createdAt,value
2023-11-23T00:00:41.950Z,2.15
2023-11-23T00:01:42.004Z,2.25
2023-11-23T00:02:42.043Z,2.17
2023-11-23T00:03:41.925Z,2.22
2023-11-23T00:04:41.900Z,2.22
2023-11-23T00:05:41.905Z,2.17
2023-11-23T00:06:41.877Z,2.25
2023-11-23T00:07:41.866Z,2.20
2023-11-23T00:08:41.887Z,2.24
2023-11-23T00:09:41.833Z,2.20
2023-11-23T00:10:41.811Z,2.26
2023-11-23T00:11:41.816Z,2.32
2023-11-23T00:12:41.874Z,2.24
2023-11-23T00:13:41.768Z,2.22
2023-11-23T00:14:41.818Z,2.26
2023-11-23T00:15:41.744Z,2.29
2023-11-23T00:16:41.750Z,2.32
2023-11-23T00:17:41.769Z,2.33
2023-11-23T00:18:41.774Z,2.26
2023-11-23T00:19:41.685Z,2.29
2023-11-23T00:20:41.688Z,2.32
2023-11-23T00:21:41.663Z,2.31
2023-11-23T00:22:41.644Z,2.38
2023-11-23T00:23:41.657Z,2.36
2023-11-23T00:24:41.617Z,2.33
2023-11-23T00:25:41.610Z,2.33
2023-11-23T00:26:41.606Z,2.38
2023-11-23T00:27:41.578Z,2.42
2023-11-23T00:28:41.563Z,2.33
2023-11-23T00:29:41.566Z,2.42
2023-11-23T00:30:41.536Z,2.44
2023-11-23T00:31:41.519Z,2.47
2023-11-23T00:32:41.647Z,2.46
2023-11-23T00:33:41.624Z,2.44
2023-11-23T00:34:41.498Z,2.43
2023-11-23T00:35:41.502Z,2.46
2023-11-23T00:36:41.450Z,2.44
2023-11-23T00:37:41.437Z,2.39
2023-11-23T00:38:41.459Z,2.53
2023-11-23T00:39:41.466Z,2.54
2023-11-23T00:40:41.402Z,2.47
2023-11-23T00:41:41.396Z,2.57
2023-11-23T00:42:41.368Z,2.53
2023-11-23T00:43:41.352Z,2.50
2023-11-23T00:44:41.364Z,2.50
2023-11-23T00:45:41.341Z,2.56
2023-11-23T00:46:41.378Z,2.57
2023-11-23T00:47:41.384Z,2.60
2023-11-23T00:48:41.407Z,2.60
2023-11-23T00:49:41.275Z,2.56
2023-11-23T00:50:41.295Z,2.53
2023-11-23T00:51:41.253Z,2.62
2023-11-23T00:52:41.237Z,2.68
2023-11-23T00:53:41.249Z,2.68
2023-11-23T00:54:41.205Z,2.65
2023-11-23T00:55:41.189Z,2.71
2023-11-23T00:56:41.188Z,2.62
2023-11-23T00:57:41.181Z,2.72
2023-11-23T00:58:41.157Z,2.77
2023-11-23T00:59:41.143Z,2.79
2023-11-23T01:00:41.163Z,2.75
2023-11-23T01:01:41.180Z,2.72
2023-11-23T01:02:41.237Z,2.82
2023-11-23T01:03:41.176Z,2.75
2023-11-23T01:04:41.084Z,2.72
2023-11-23T01:05:41.098Z,2.79
2023-11-23T01:06:41.050Z,2.87
2023-11-23T01:07:41.026Z,2.74
2023-11-23T01:08:41.039Z,2.80
2023-11-23T01:09:41.004Z,2.75
2023-11-23T01:10:40.994Z,2.75
2023-11-23T01:11:41.043Z,2.83
2023-11-23T01:12:40.966Z,2.83
2023-11-23T01:13:40.964Z,2.90
2023-11-23T01:14:40.972Z,2.79
2023-11-23T01:15:40.924Z,2.86
2023-11-23T01:16:40.944Z,2.80
2023-11-23T01:17:40.978Z,2.87
2023-11-23T01:18:40.948Z,2.92
2023-11-23T01:19:40.877Z,3.00
2023-11-23T01:20:40.885Z,2.93
2023-11-23T01:21:40.852Z,2.89
2023-11-23T01:22:40.828Z,2.98
2023-11-23T01:23:40.845Z,2.93
2023-11-23T01:24:40.798Z,2.97
2023-11-23T01:25:40.799Z,3.01
2023-11-23T01:26:40.818Z,3.04
2023-11-23T01:27:40.757Z,3.01
2023-11-23T01:28:40.746Z,2.98
2023-11-23T01:29:40.744Z,3.08
2023-11-23T01:30:40.720Z,3.10
2023-11-23T01:31:40.704Z,3.13
2023-11-23T01:32:40.827Z,3.08
2023-11-23T01:33:40.718Z,3.07
2023-11-23T01:34:40.664Z,3.19
2023-11-23T01:35:40.690Z,3.18
2023-11-23T01:36:40.645Z,3.14
2023-11-23T01:37:40.623Z,3.19
2023-11-23T01:38:40.651Z,3.19
2023-11-23T01:39:40.630Z,3.23
2023-11-23T01:40:40.587Z,3.22
2023-11-23T01:41:40.568Z,3.21
2023-11-23T01:42:40.556Z,3.26
2023-11-23T01:43:40.545Z,3.34
2023-11-23T01:44:40.548Z,3.28
2023-11-23T01:45:40.540Z,3.37
2023-11-23T01:46:40.509Z,3.31
2023-11-23T01:47:40.530Z,3.34
2023-11-23T01:48:40.538Z,3.41
2023-11-23T01:49:40.477Z,3.40
2023-11-23T01:50:40.476Z,3.36
2023-11-23T01:51:40.437Z,3.37
2023-11-23T01:52:40.421Z,3.50
2023-11-23T01:53:40.429Z,3.37
2023-11-23T01:54:40.400Z,3.53
2023-11-23T01:55:40.385Z,3.55
2023-11-23T01:56:40.389Z,3.50
2023-11-23T01:57:40.380Z,3.50
2023-11-23T01:58:40.345Z,3.51
2023-11-23T01:59:40.345Z,3.55
2023-11-23T02:00:40.323Z,3.47
2023-11-23T02:01:40.324Z,3.59
2023-11-23T02:02:40.353Z,3.60
2023-11-23T02:03:40.343Z,3.59
2023-11-23T02:04:40.266Z,3.60
2023-11-23T02:05:40.317Z,3.69
2023-11-23T02:06:40.235Z,3.62
2023-11-23T02:07:40.395Z,3.62
2023-11-23T02:08:40.277Z,3.68
2023-11-23T02:09:40.195Z,3.76
2023-11-23T02:10:40.197Z,3.77
2023-11-23T02:11:40.195Z,3.80
2023-11-23T02:12:40.152Z,3.73
2023-11-23T02:13:40.144Z,3.87
2023-11-23T02:14:40.149Z,3.81
2023-11-23T02:15:40.532Z,3.83
2023-11-23T02:16:40.104Z,3.86
2023-11-23T02:17:40.340Z,3.81
2023-11-23T02:18:40.121Z,3.81
2023-11-23T02:19:40.067Z,3.92
2023-11-23T02:20:40.109Z,3.88
2023-11-23T02:21:40.038Z,3.87
2023-11-23T02:22:40.026Z,3.94
2023-11-23T02:23:40.123Z,4.05
2023-11-23T02:24:40.002Z,3.98
2023-11-23T02:25:39.997Z,3.99
2023-11-23T02:26:40.073Z,3.98
2023-11-23T02:27:39.987Z,4.10
2023-11-23T02:28:40.337Z,3.99
2023-11-23T02:29:40.100Z,4.10
2023-11-23T02:30:39.925Z,4.08
2023-11-23T02:31:39.919Z,4.12
2023-11-23T02:32:39.915Z,4.12
2023-11-23T02:33:39.932Z,4.14
2023-11-23T02:34:39.919Z,4.22
2023-11-23T02:35:40.089Z,4.22
2023-11-23T02:36:39.850Z,4.32
2023-11-23T02:37:39.839Z,4.37
2023-11-23T02:38:39.820Z,4.32
2023-11-23T02:39:39.807Z,4.32
2023-11-23T02:40:39.790Z,4.40
2023-11-23T02:41:39.777Z,4.53
2023-11-23T02:42:41.867Z,4.41
2023-11-23T02:43:39.818Z,4.52
2023-11-23T02:44:39.844Z,4.53
2023-11-23T02:45:39.735Z,4.63
2023-11-23T02:46:39.743Z,4.58
2023-11-23T02:47:39.836Z,4.58
2023-11-23T02:48:39.800Z,4.66
2023-11-23T02:49:39.716Z,4.59
2023-11-23T02:50:39.775Z,4.59
2023-11-23T02:51:39.789Z,4.60
2023-11-23T02:52:39.793Z,4.63
2023-11-23T02:53:39.620Z,4.60
2023-11-23T02:54:39.623Z,4.63
2023-11-23T02:55:39.613Z,4.58
2023-11-23T02:56:39.586Z,4.59
2023-11-23T02:57:39.591Z,4.59
2023-11-23T02:58:39.559Z,4.60
2023-11-23T02:59:39.560Z,4.70
2023-11-23T03:00:39.532Z,4.67
2023-11-23T03:01:39.599Z,4.70
2023-11-23T03:02:39.580Z,4.73
2023-11-23T03:03:39.654Z,4.70
2023-11-23T03:04:39.519Z,4.75
2023-11-23T03:05:39.475Z,4.78
2023-11-23T03:06:39.464Z,4.73
2023-11-23T03:07:39.447Z,4.74
2023-11-23T03:08:39.453Z,4.86
2023-11-23T03:09:39.420Z,4.87
2023-11-23T03:10:39.412Z,4.97
2023-11-23T03:11:39.400Z,4.94
2023-11-23T03:12:39.385Z,4.80
2023-11-23T03:13:39.368Z,4.84
2023-11-23T03:14:39.362Z,4.86
2023-11-23T03:15:39.348Z,4.94
2023-11-23T03:16:39.335Z,5.00
2023-11-23T03:17:39.380Z,4.92
2023-11-23T03:18:39.404Z,4.94
2023-11-23T03:19:39.302Z,4.94
2023-11-23T03:20:39.281Z,4.97
2023-11-23T03:21:39.439Z,4.96
2023-11-23T03:22:39.283Z,4.96
2023-11-23T03:23:39.238Z,4.97
2023-11-23T03:24:39.241Z,5.00
2023-11-23T03:25:39.223Z,4.97
2023-11-23T03:26:39.208Z,5.00
2023-11-23T03:27:39.201Z,4.92
2023-11-23T03:28:39.182Z,4.94
2023-11-23T03:29:39.170Z,4.87
2023-11-23T03:30:39.156Z,4.93
2023-11-23T03:31:39.151Z,4.93
2023-11-23T03:32:39.212Z,4.89
2023-11-23T03:33:39.160Z,4.96
2023-11-23T03:34:39.198Z,4.93
2023-11-23T03:35:39.100Z,4.97
2023-11-23T03:36:39.082Z,5.00
2023-11-23T03:37:39.104Z,4.96
2023-11-23T03:38:39.062Z,5.02
2023-11-23T03:39:39.039Z,5.11
2023-11-23T03:40:39.036Z,5.00
2023-11-23T03:41:39.022Z,5.02
2023-11-23T03:42:39.012Z,5.08
2023-11-23T03:43:39.010Z,5.02
2023-11-23T03:44:38.994Z,4.99
2023-11-23T03:45:39.002Z,5.12
2023-11-23T03:46:38.959Z,5.17
2023-11-23T03:47:39.003Z,5.04
2023-11-23T03:48:38.993Z,5.15
2023-11-23T03:49:38.927Z,5.08
2023-11-23T03:50:38.906Z,5.15
2023-11-23T03:51:38.893Z,5.02
2023-11-23T03:52:38.898Z,5.14
2023-11-23T03:53:38.865Z,5.15
2023-11-23T03:54:38.858Z,5.08
2023-11-23T03:55:38.863Z,5.11
2023-11-23T03:56:38.977Z,5.12
2023-11-23T03:57:38.836Z,5.25
2023-11-23T03:58:38.807Z,5.12
2023-11-23T03:59:38.797Z,5.23
2023-11-23T04:00:38.786Z,5.15
2023-11-23T04:01:38.845Z,5.20
2023-11-23T04:02:38.811Z,5.23
2023-11-23T04:03:38.764Z,5.25
2023-11-23T04:04:38.742Z,5.21
2023-11-23T04:05:38.734Z,5.23
2023-11-23T04:06:38.724Z,5.23
2023-11-23T04:07:38.700Z,5.23
2023-11-23T04:08:38.685Z,5.26
2023-11-23T04:09:38.673Z,5.25
2023-11-23T04:10:38.668Z,5.32
2023-11-23T04:11:38.659Z,5.32
2023-11-23T04:12:38.656Z,5.38
2023-11-23T04:13:38.715Z,5.35
2023-11-23T04:14:38.622Z,5.33
2023-11-23T04:15:38.605Z,5.39
2023-11-23T04:16:38.616Z,5.44
2023-11-23T04:17:38.606Z,5.36
2023-11-23T04:18:38.631Z,5.39
2023-11-23T04:19:38.552Z,5.47
2023-11-23T04:20:38.550Z,5.46
2023-11-23T04:21:38.545Z,5.38
2023-11-23T04:22:38.527Z,5.44
2023-11-23T04:23:38.503Z,5.43
2023-11-23T04:24:38.492Z,5.43
2023-11-23T04:25:38.486Z,5.47
2023-11-23T04:26:38.468Z,5.38
2023-11-23T04:27:38.455Z,5.41
2023-11-23T04:28:38.441Z,5.46
2023-11-23T04:29:38.438Z,5.41
2023-11-23T04:30:38.423Z,5.47
2023-11-23T04:31:38.417Z,5.47
2023-11-23T04:32:38.414Z,5.46
2023-11-23T04:33:38.539Z,5.46
2023-11-23T04:34:38.398Z,5.56
2023-11-23T04:35:38.359Z,5.47
2023-11-23T04:36:38.354Z,5.53
2023-11-23T04:37:38.335Z,5.54
2023-11-23T04:38:38.322Z,5.47
2023-11-23T04:39:38.313Z,5.57
2023-11-23T04:40:38.300Z,5.65
2023-11-23T04:41:38.295Z,5.59
2023-11-23T04:42:38.276Z,5.62
2023-11-23T04:43:38.289Z,5.57
2023-11-23T04:44:38.249Z,5.65
2023-11-23T04:45:38.243Z,5.65
2023-11-23T04:46:38.258Z,5.66
2023-11-23T04:47:38.313Z,5.73
2023-11-23T04:48:38.287Z,5.64
2023-11-23T04:49:38.197Z,5.56
2023-11-23T04:50:38.266Z,5.65
2023-11-23T04:51:38.167Z,5.64
2023-11-23T04:52:38.173Z,5.65
2023-11-23T04:53:38.142Z,5.72
2023-11-23T04:54:38.140Z,5.71
2023-11-23T04:55:38.118Z,5.69
2023-11-23T04:56:38.110Z,5.79
2023-11-23T04:57:38.092Z,5.72
2023-11-23T04:58:38.090Z,5.72
2023-11-23T04:59:38.071Z,5.75
2023-11-23T05:00:38.204Z,5.79
2023-11-23T05:01:38.075Z,5.76
2023-11-23T05:02:38.045Z,5.83
2023-11-23T05:03:38.092Z,5.79
2023-11-23T05:04:38.011Z,5.83
2023-11-23T05:05:37.996Z,5.75
2023-11-23T05:06:37.988Z,5.86
2023-11-23T05:07:37.976Z,5.82
2023-11-23T05:08:38.033Z,5.86
2023-11-23T05:09:37.957Z,5.90
2023-11-23T05:10:37.935Z,5.91
2023-11-23T05:11:37.926Z,5.93
2023-11-23T05:12:37.919Z,5.97
2023-11-23T05:13:37.912Z,5.93
2023-11-23T05:14:37.893Z,5.93
2023-11-23T05:15:37.887Z,5.94
2023-11-23T05:16:37.976Z,5.93
2023-11-23T05:17:37.872Z,5.89
2023-11-23T05:18:37.866Z,5.93
2023-11-23T05:19:42.712Z,5.93
2023-11-23T05:20:37.838Z,5.90
2023-11-23T05:21:37.809Z,5.91
2023-11-23T05:22:37.793Z,6.04
2023-11-23T05:23:37.782Z,6.02
2023-11-23T05:24:37.842Z,5.99
2023-11-23T05:25:37.760Z,5.98
2023-11-23T05:26:37.745Z,5.99
2023-11-23T05:27:37.735Z,6.07
2023-11-23T05:28:37.728Z,6.05
2023-11-23T05:29:37.720Z,6.04
2023-11-23T05:30:37.962Z,6.02
2023-11-23T05:31:37.693Z,6.05
2023-11-23T05:32:37.689Z,5.97
2023-11-23T05:33:37.739Z,6.08
2023-11-23T05:34:37.653Z,6.12
2023-11-23T05:35:37.641Z,6.11
2023-11-23T05:36:37.625Z,6.01
2023-11-23T05:37:37.622Z,6.07
2023-11-23T05:38:37.612Z,6.07
2023-11-23T05:39:40.648Z,6.08
2023-11-23T05:40:37.582Z,6.12
2023-11-23T05:41:37.570Z,6.14
2023-11-23T05:42:37.888Z,6.14
2023-11-23T05:43:37.546Z,6.22
2023-11-23T05:44:37.536Z,6.22
2023-11-23T05:45:37.528Z,6.14
2023-11-23T05:46:37.568Z,6.26
2023-11-23T05:47:37.517Z,6.16
2023-11-23T05:48:37.528Z,6.20
2023-11-23T05:49:37.478Z,6.31
2023-11-23T05:50:37.467Z,6.31
2023-11-23T05:51:37.455Z,6.27
2023-11-23T05:52:37.442Z,6.27
2023-11-23T05:53:37.433Z,6.19
2023-11-23T05:54:37.415Z,6.28
2023-11-23T05:55:37.409Z,6.26
2023-11-23T05:56:37.402Z,6.30
2023-11-23T05:57:37.396Z,6.24
2023-11-23T05:58:37.378Z,6.31
2023-11-23T05:59:37.359Z,6.26
2023-11-23T06:00:37.350Z,6.27
2023-11-23T06:01:37.334Z,6.39
2023-11-23T06:02:37.392Z,6.24
2023-11-23T06:03:37.432Z,6.36
2023-11-23T06:04:37.531Z,6.42
2023-11-23T06:05:37.398Z,6.36
2023-11-23T06:06:37.276Z,6.35
2023-11-23T06:07:37.272Z,6.44
2023-11-23T06:08:37.254Z,6.52
2023-11-23T06:09:37.244Z,6.51
2023-11-23T06:10:37.229Z,6.39
2023-11-23T06:11:37.220Z,6.48
2023-11-23T06:12:37.205Z,6.44
2023-11-23T06:13:37.194Z,6.44
2023-11-23T06:14:37.198Z,6.57
2023-11-23T06:15:37.181Z,6.45
2023-11-23T06:16:37.165Z,6.62
2023-11-23T06:17:37.218Z,6.60
2023-11-23T06:18:37.186Z,6.63
2023-11-23T06:19:37.136Z,6.62
2023-11-23T06:20:37.130Z,6.62
2023-11-23T06:21:37.108Z,6.60
2023-11-23T06:22:37.104Z,6.60
2023-11-23T06:23:37.082Z,6.60
2023-11-23T06:24:37.072Z,6.63
2023-11-23T06:25:37.065Z,6.70
2023-11-23T06:26:37.050Z,6.60
2023-11-23T06:27:37.034Z,6.70
2023-11-23T06:28:37.021Z,6.66
2023-11-23T06:29:37.045Z,6.70
2023-11-23T06:30:37.001Z,6.72
2023-11-23T06:31:37.064Z,6.69
2023-11-23T06:32:36.984Z,6.64
2023-11-23T06:33:37.002Z,6.78
2023-11-23T06:34:39.764Z,6.72
2023-11-23T06:35:36.969Z,6.79
2023-11-23T06:36:36.939Z,6.67
2023-11-23T06:37:36.930Z,6.78
2023-11-23T06:38:36.912Z,6.81
2023-11-23T06:39:36.912Z,6.78
2023-11-23T06:40:36.907Z,6.75
2023-11-23T06:41:36.873Z,6.81
2023-11-23T06:42:39.195Z,6.74
2023-11-23T06:43:36.929Z,6.81
2023-11-23T06:44:36.849Z,6.72
2023-11-23T06:45:36.848Z,6.77
2023-11-23T06:46:36.851Z,6.77
2023-11-23T06:47:36.861Z,6.72
2023-11-23T06:48:36.886Z,6.75
2023-11-23T06:49:36.787Z,6.84
2023-11-23T06:50:36.775Z,6.85
2023-11-23T06:51:36.770Z,6.75
2023-11-23T06:52:36.748Z,6.78
2023-11-23T06:53:36.738Z,6.75
2023-11-23T06:54:36.727Z,6.77
2023-11-23T06:55:36.714Z,6.74
2023-11-23T06:56:36.703Z,6.81
2023-11-23T06:57:36.691Z,6.87
2023-11-23T06:58:36.682Z,6.82
2023-11-23T06:59:36.675Z,6.92
2023-11-23T07:00:36.839Z,6.84
2023-11-23T07:01:36.674Z,6.87
2023-11-23T07:02:36.737Z,6.95
2023-11-23T07:03:36.979Z,6.89
2023-11-23T07:04:36.706Z,6.96
2023-11-23T07:05:36.602Z,6.95
2023-11-23T07:06:36.596Z,6.92
2023-11-23T07:07:36.588Z,6.92
2023-11-23T07:08:36.566Z,7.02
2023-11-23T07:09:36.597Z,6.97
2023-11-23T07:10:36.556Z,7.02
2023-11-23T07:11:36.539Z,6.96
2023-11-23T07:12:36.526Z,7.00
2023-11-23T07:13:36.594Z,6.99
2023-11-23T07:14:36.531Z,6.96
2023-11-23T07:15:36.580Z,7.00
2023-11-23T07:16:36.508Z,7.02
2023-11-23T07:17:36.514Z,6.95
2023-11-23T07:18:36.523Z,7.02
2023-11-23T07:19:36.442Z,7.00
2023-11-23T07:20:36.441Z,6.99
2023-11-23T07:21:36.455Z,6.99
2023-11-23T07:22:36.421Z,7.03
2023-11-23T07:23:36.398Z,7.00
2023-11-23T07:24:36.394Z,6.93
2023-11-23T07:25:36.385Z,6.99
2023-11-23T07:26:36.370Z,7.00
2023-11-23T07:27:36.353Z,7.00
2023-11-23T07:28:36.347Z,7.03
2023-11-23T07:29:36.343Z,7.05
2023-11-23T07:30:36.372Z,7.06
2023-11-23T07:31:36.306Z,7.00
2023-11-23T07:32:36.528Z,7.03
2023-11-23T07:33:36.317Z,6.97
2023-11-23T07:34:36.277Z,7.00
2023-11-23T07:35:36.280Z,7.00
2023-11-23T07:36:36.296Z,7.00
2023-11-23T07:37:36.250Z,6.99
2023-11-23T07:38:36.250Z,7.10
2023-11-23T07:39:36.248Z,7.00
2023-11-23T07:40:36.212Z,7.07
2023-11-23T07:41:36.202Z,7.13
2023-11-23T07:42:36.216Z,7.13
2023-11-23T07:43:36.197Z,7.13
2023-11-23T07:44:36.162Z,7.14
2023-11-23T07:45:36.188Z,7.18
2023-11-23T07:46:36.177Z,7.15
2023-11-23T07:47:36.144Z,7.10
2023-11-23T07:48:36.145Z,7.14
2023-11-23T07:49:36.124Z,7.11
2023-11-23T07:50:36.106Z,7.20
2023-11-23T07:51:36.198Z,7.18
2023-11-23T07:52:36.079Z,7.13
2023-11-23T07:53:36.067Z,7.15
2023-11-23T07:54:36.088Z,7.15
2023-11-23T07:55:36.040Z,7.14
2023-11-23T07:56:36.055Z,7.11
2023-11-23T07:57:36.069Z,7.14
2023-11-23T07:58:36.014Z,7.15
2023-11-23T07:59:36.054Z,7.05
2023-11-23T08:00:36.023Z,7.18
2023-11-23T08:01:35.992Z,7.10
2023-11-23T08:02:35.967Z,7.15
2023-11-23T08:03:36.048Z,7.15
2023-11-23T08:04:35.972Z,7.20
2023-11-23T08:05:35.948Z,7.10
2023-11-23T08:06:35.973Z,7.13
2023-11-23T08:07:35.916Z,7.17
2023-11-23T08:08:35.897Z,7.21
2023-11-23T08:09:36.003Z,7.18
2023-11-23T08:10:35.888Z,7.11
2023-11-23T08:11:35.867Z,7.17
2023-11-23T08:12:35.862Z,7.18
2023-11-23T08:13:35.842Z,7.20
2023-11-23T08:14:35.868Z,7.15
2023-11-23T08:15:35.919Z,7.17
2023-11-23T08:16:35.826Z,7.20
2023-11-23T08:17:36.042Z,7.21
2023-11-23T08:18:40.502Z,7.15
2023-11-23T08:19:35.776Z,7.17
2023-11-23T08:20:35.817Z,7.17
2023-11-23T08:21:35.762Z,7.18
2023-11-23T08:22:35.740Z,7.32
2023-11-23T08:23:35.725Z,7.18
2023-11-23T08:24:35.737Z,7.21
2023-11-23T08:25:35.711Z,7.24
2023-11-23T08:26:35.704Z,7.23
2023-11-23T08:27:37.154Z,7.15
2023-11-23T08:28:35.681Z,7.31
2023-11-23T08:29:35.675Z,7.17
2023-11-23T08:30:35.762Z,7.15
2023-11-23T08:31:35.715Z,7.35
2023-11-23T08:32:35.663Z,7.18
2023-11-23T08:33:35.641Z,7.35
2023-11-23T08:34:35.606Z,7.29
2023-11-23T08:35:35.597Z,7.25
2023-11-23T08:36:35.610Z,7.25
2023-11-23T08:37:35.575Z,7.32
2023-11-23T08:38:35.578Z,7.28
2023-11-23T08:39:35.583Z,7.28
2023-11-23T08:40:35.545Z,7.36
2023-11-23T08:41:35.534Z,7.33
2023-11-23T08:42:35.549Z,7.32
2023-11-23T08:43:35.508Z,7.35
2023-11-23T08:44:35.498Z,7.38
2023-11-23T08:45:35.497Z,7.36
2023-11-23T08:46:35.565Z,7.45
2023-11-23T08:47:35.468Z,7.38
2023-11-23T08:48:35.476Z,7.40
2023-11-23T08:49:35.459Z,7.45
2023-11-23T08:50:35.436Z,7.36
2023-11-23T08:51:35.463Z,7.48
2023-11-23T08:52:35.409Z,7.48
2023-11-23T08:53:35.404Z,7.47
2023-11-23T08:54:35.412Z,7.42
2023-11-23T08:55:35.376Z,7.45
2023-11-23T08:56:35.389Z,7.47
2023-11-23T08:57:35.381Z,7.54
2023-11-23T08:58:35.363Z,7.51
2023-11-23T08:59:35.338Z,7.51
2023-11-23T09:00:35.379Z,7.57
2023-11-23T09:01:35.416Z,7.63
2023-11-23T09:02:35.333Z,7.57
2023-11-23T09:03:35.396Z,7.58
2023-11-23T09:04:43.017Z,7.61
2023-11-23T09:05:35.313Z,7.70
2023-11-23T09:06:35.284Z,7.61
2023-11-23T09:07:35.305Z,7.73
2023-11-23T09:08:35.237Z,7.79
2023-11-23T09:09:35.256Z,7.70
2023-11-23T09:10:35.223Z,7.76
2023-11-23T09:11:35.202Z,7.69
2023-11-23T09:12:35.230Z,7.73
2023-11-23T09:13:35.185Z,7.77
2023-11-23T09:14:43.172Z,7.75
2023-11-23T09:15:35.230Z,7.77
2023-11-23T09:16:35.154Z,7.88
2023-11-23T09:17:35.169Z,7.87
2023-11-23T09:18:35.243Z,7.85
2023-11-23T09:19:35.135Z,7.83
2023-11-23T09:20:35.141Z,7.80
2023-11-23T09:21:35.147Z,7.85
2023-11-23T09:22:35.114Z,7.91
2023-11-23T09:23:35.081Z,7.93
2023-11-23T09:24:35.111Z,7.94
2023-11-23T09:25:35.368Z,7.90
2023-11-23T09:26:35.041Z,7.97
2023-11-23T09:27:35.080Z,7.90
2023-11-23T09:28:35.022Z,7.95
2023-11-23T09:29:35.023Z,7.95
2023-11-23T09:30:35.073Z,7.93
2023-11-23T09:31:35.002Z,8.08
2023-11-23T09:32:35.052Z,7.98
2023-11-23T09:33:34.999Z,7.98
2023-11-23T09:34:34.966Z,8.01
2023-11-23T09:35:34.951Z,8.01
2023-11-23T09:36:34.999Z,8.05
2023-11-23T09:37:34.925Z,8.12
2023-11-23T09:38:34.913Z,8.03
2023-11-23T09:39:34.930Z,7.98
2023-11-23T09:40:34.908Z,7.95
2023-11-23T09:41:34.884Z,8.08
2023-11-23T09:42:34.906Z,8.01
2023-11-23T09:43:34.866Z,8.01
2023-11-23T09:44:34.870Z,8.05
2023-11-23T09:45:34.889Z,8.06
2023-11-23T09:46:34.860Z,8.12
2023-11-23T09:47:34.836Z,8.08
2023-11-23T09:48:34.838Z,8.12
2023-11-23T09:49:34.824Z,8.13
2023-11-23T09:50:38.870Z,8.09
2023-11-23T09:51:34.795Z,8.18
2023-11-23T09:52:34.766Z,8.18
2023-11-23T09:53:34.767Z,8.18
2023-11-23T09:54:34.789Z,8.15
2023-11-23T09:55:34.734Z,8.13
2023-11-23T09:56:34.723Z,8.24
2023-11-23T09:57:34.761Z,8.31
2023-11-23T09:58:34.699Z,8.24
2023-11-23T09:59:34.708Z,8.31
2023-11-23T10:00:34.701Z,8.31
2023-11-23T10:01:34.722Z,8.26
2023-11-23T10:02:35.861Z,8.27
2023-11-23T10:03:34.736Z,8.27
2023-11-23T10:04:34.897Z,8.37
2023-11-23T10:05:34.629Z,8.33
2023-11-23T10:06:34.693Z,8.38
2023-11-23T10:07:34.636Z,8.36
2023-11-23T10:08:35.942Z,8.38
2023-11-23T10:09:35.023Z,8.51
2023-11-23T10:10:34.575Z,8.45
2023-11-23T10:11:34.567Z,8.53
2023-11-23T10:12:34.603Z,8.55
2023-11-23T10:13:34.543Z,8.58
2023-11-23T10:14:34.533Z,8.53
2023-11-23T10:15:34.544Z,8.51
2023-11-23T10:16:34.538Z,8.52
2023-11-23T10:17:34.529Z,8.56
2023-11-23T10:18:34.518Z,8.55
2023-11-23T10:19:34.482Z,8.51
2023-11-23T10:20:36.617Z,8.51
2023-11-23T10:21:34.468Z,8.49
2023-11-23T10:22:34.527Z,8.51
2023-11-23T10:23:34.442Z,8.51
2023-11-23T10:24:34.491Z,8.52
2023-11-23T10:25:34.424Z,8.55
2023-11-23T10:26:34.417Z,8.56
2023-11-23T10:27:34.478Z,8.56
2023-11-23T10:28:34.387Z,8.48
2023-11-23T10:29:34.377Z,8.58
2023-11-23T10:30:34.466Z,8.51
2023-11-23T10:31:34.358Z,8.48
2023-11-23T10:32:34.370Z,8.49
2023-11-23T10:33:34.348Z,8.51
2023-11-23T10:34:34.364Z,8.52
2023-11-23T10:35:34.312Z,8.48
2023-11-23T10:36:34.375Z,8.49
2023-11-23T10:37:34.295Z,8.51
2023-11-23T10:38:42.370Z,8.45
2023-11-23T10:39:34.309Z,8.49
2023-11-23T10:40:34.266Z,8.49
2023-11-23T10:41:34.252Z,8.48
2023-11-23T10:42:34.336Z,8.42
2023-11-23T10:43:34.231Z,8.49
2023-11-23T10:44:34.231Z,8.37
2023-11-23T10:45:36.504Z,8.46
2023-11-23T10:46:34.263Z,8.36
2023-11-23T10:47:34.206Z,8.41
2023-11-23T10:48:34.240Z,8.34
2023-11-23T10:49:34.173Z,8.37
2023-11-23T10:50:34.163Z,8.41
2023-11-23T10:51:34.232Z,8.42
2023-11-23T10:52:34.144Z,8.44
2023-11-23T10:53:34.160Z,8.38
2023-11-23T10:54:34.215Z,8.42
2023-11-23T10:55:34.121Z,8.37
2023-11-23T10:56:34.118Z,8.37
2023-11-23T10:57:34.157Z,8.44
2023-11-23T10:58:34.081Z,8.42
2023-11-23T10:59:34.068Z,8.37
2023-11-23T11:00:34.199Z,8.44
2023-11-23T11:01:34.097Z,8.42
2023-11-23T11:02:34.066Z,8.49
2023-11-23T11:03:34.069Z,8.38
2023-11-23T11:04:34.052Z,8.38
2023-11-23T11:05:34.017Z,8.45
2023-11-23T11:06:34.022Z,8.52
2023-11-23T11:07:33.985Z,8.44
2023-11-23T11:08:33.979Z,8.48
2023-11-23T11:09:34.033Z,8.51
2023-11-23T11:10:33.957Z,8.55
2023-11-23T11:11:33.942Z,8.49
2023-11-23T11:12:33.963Z,8.49
2023-11-23T11:13:33.979Z,8.49
2023-11-23T11:14:33.940Z,8.61
2023-11-23T11:15:34.013Z,8.53
2023-11-23T11:16:33.914Z,8.52
2023-11-23T11:17:33.978Z,8.46
2023-11-23T11:18:33.922Z,8.55
2023-11-23T11:19:33.962Z,8.49
2023-11-23T11:20:33.874Z,8.53
2023-11-23T11:21:33.940Z,8.51
2023-11-23T11:22:33.857Z,8.66
2023-11-23T11:23:33.822Z,8.60
2023-11-23T11:24:33.848Z,8.61
2023-11-23T11:25:33.801Z,8.61
2023-11-23T11:26:33.799Z,8.64
2023-11-23T11:27:33.825Z,8.61
2023-11-23T11:28:33.792Z,8.70
2023-11-23T11:29:33.773Z,8.64
2023-11-23T11:30:33.910Z,8.63
2023-11-23T11:31:33.853Z,8.61
2023-11-23T11:32:33.777Z,8.70
2023-11-23T11:33:33.753Z,8.67
2023-11-23T11:34:33.718Z,8.74
2023-11-23T11:35:33.730Z,8.79
2023-11-23T11:36:33.724Z,8.74
2023-11-23T11:37:33.688Z,8.73
2023-11-23T11:38:33.683Z,8.78
2023-11-23T11:39:33.690Z,8.82
2023-11-23T11:40:33.649Z,8.78
2023-11-23T11:41:33.637Z,8.84
2023-11-23T11:42:33.710Z,8.82
2023-11-23T11:43:33.634Z,8.85
2023-11-23T11:44:33.620Z,8.92
2023-11-23T11:45:33.653Z,8.87
2023-11-23T11:46:33.633Z,8.88
2023-11-23T11:47:33.619Z,9.00
2023-11-23T11:48:33.618Z,9.00
2023-11-23T11:49:33.565Z,8.99
2023-11-23T11:50:33.552Z,9.08
2023-11-23T11:51:33.645Z,9.02
2023-11-23T11:52:33.529Z,9.11
2023-11-23T11:53:33.532Z,9.21
2023-11-23T11:54:33.545Z,9.25
2023-11-23T11:55:33.515Z,9.28
2023-11-23T11:56:33.548Z,9.31
2023-11-23T11:57:33.504Z,9.31
2023-11-23T11:58:33.469Z,9.50
2023-11-23T11:59:33.458Z,9.46
2023-11-23T12:00:33.459Z,9.43
2023-11-23T12:01:33.522Z,9.55
2023-11-23T12:02:33.550Z,9.47
2023-11-23T12:03:33.538Z,9.51
2023-11-23T12:04:33.491Z,9.50
2023-11-23T12:05:33.401Z,9.61
2023-11-23T12:06:33.424Z,9.50
2023-11-23T12:07:33.381Z,9.51
2023-11-23T12:08:33.373Z,9.68
2023-11-23T12:09:38.789Z,9.65
2023-11-23T12:10:33.351Z,9.66
2023-11-23T12:11:34.727Z,9.64
2023-11-23T12:12:33.405Z,9.65
2023-11-23T12:13:33.352Z,9.59
2023-11-23T12:14:33.311Z,9.64
2023-11-23T12:15:33.412Z,9.68
2023-11-23T12:16:33.349Z,9.66
2023-11-23T12:17:33.357Z,9.62
2023-11-23T12:18:33.332Z,9.76
2023-11-23T12:19:33.261Z,9.73
2023-11-23T12:20:33.261Z,9.77
2023-11-23T12:21:33.302Z,9.69
2023-11-23T12:22:33.253Z,9.74
2023-11-23T12:23:33.226Z,9.69
2023-11-23T12:24:33.320Z,9.69
2023-11-23T12:25:33.213Z,9.73
2023-11-23T12:26:33.203Z,9.73
2023-11-23T12:27:33.230Z,9.69
2023-11-23T12:28:33.182Z,9.69
2023-11-23T12:29:33.168Z,9.82
2023-11-23T12:30:33.261Z,9.80
2023-11-23T12:31:33.153Z,9.84
2023-11-23T12:32:33.169Z,9.87
2023-11-23T12:33:33.170Z,9.82
2023-11-23T12:34:33.128Z,9.80
2023-11-23T12:35:33.105Z,9.84
2023-11-23T12:36:33.135Z,9.83
2023-11-23T12:37:33.096Z,9.95
2023-11-23T12:38:33.083Z,9.91
2023-11-23T12:39:33.421Z,9.92
2023-11-23T12:40:33.061Z,9.94
2023-11-23T12:41:42.733Z,9.91
2023-11-23T12:42:33.062Z,9.97
2023-11-23T12:43:33.032Z,9.98
2023-11-23T12:44:33.021Z,10.05
2023-11-23T12:45:33.092Z,10.10
2023-11-23T12:46:33.064Z,10.07
2023-11-23T12:47:33.043Z,10.15
2023-11-23T12:48:33.039Z,10.10
2023-11-23T12:49:32.974Z,10.23
2023-11-23T12:50:33.150Z,10.17
2023-11-23T12:51:33.050Z,10.23
2023-11-23T12:52:32.945Z,10.19
2023-11-23T12:53:32.933Z,10.23
2023-11-23T12:54:32.926Z,10.26
2023-11-23T12:55:32.915Z,10.23
2023-11-23T12:56:32.910Z,10.37
2023-11-23T12:57:32.936Z,10.28
2023-11-23T12:58:32.893Z,10.30
2023-11-23T12:59:32.874Z,10.37
2023-11-23T13:00:32.905Z,10.28
2023-11-23T13:01:33.070Z,10.37
2023-11-23T13:02:32.902Z,10.37
2023-11-23T13:03:32.884Z,10.38
2023-11-23T13:04:32.933Z,10.31
2023-11-23T13:05:32.850Z,10.31
2023-11-23T13:06:32.888Z,10.30
2023-11-23T13:07:32.828Z,10.48
2023-11-23T13:08:32.800Z,10.46
2023-11-23T13:09:32.813Z,10.44
2023-11-23T13:10:32.774Z,10.57
2023-11-23T13:11:32.959Z,10.48
2023-11-23T13:12:32.809Z,10.46
2023-11-23T13:13:32.752Z,10.42
2023-11-23T13:14:32.755Z,10.49
2023-11-23T13:15:32.755Z,10.44
2023-11-23T13:16:32.811Z,10.54
2023-11-23T13:17:32.755Z,10.44